EGEC

Campbeltown Airport

Campbeltown, United Kingdom
METAR EGEC 181720Z 10016KT 8000 RA OVC006 04/04 Q1005
Observed Flight Rules
Jan-18 @ 17:20 UTC (23 hours ago) Instrument Flight Rules
Wind Visibility Clouds Conditions
100° at 16 knots 7,998 meters
  • Overcast at 600' AGL
  • Rain
Temperatures Readings
Current 4°C / 39°F
Dewpoint 4°C / 39°F
Humidity 100%
Altimeter 29.68" Hg
Pressure 1004.92 hPa
Elevation 13
METAR EGEC 181720Z 10016KT 8000 RA OVC006 04/04 Q1005
Observed Flight Rules
Jan-18 @ 17:20 UTC
(23 hours ago)
IFR
Wind Visibility
100° at 16 knots 7,998 meters
Clouds
  • Overcast at 600' AGL
Conditions
  • Rain
Temperature Dewpoint
4°C / 39°F 4°C / 39°F
Humidity Altimeter Pressure
100% 29.68" Hg 1004.92 hPa